sensor_id;sensor_type;location;lat;lon;timestamp;pressure;altitude;pressure_sealevel;temperature;humidity
58239;BME280;44037;55.638;37.356;2023-02-19T00:02:08;97552.25;;;-6.65;81.68
58239;BME280;44037;55.638;37.356;2023-02-19T00:04:37;97544.53;;;-6.68;81.59
58239;BME280;44037;55.638;37.356;2023-02-19T00:07:04;97547.06;;;-6.68;81.79
58239;BME280;44037;55.638;37.356;2023-02-19T00:09:31;97530.44;;;-6.64;81.86
58239;BME280;44037;55.638;37.356;2023-02-19T00:11:58;97521.34;;;-6.60;81.92
58239;BME280;44037;55.638;37.356;2023-02-19T00:14:25;97517.97;;;-6.61;81.66
58239;BME280;44037;55.638;37.356;2023-02-19T00:16:52;97509.59;;;-6.60;81.52
58239;BME280;44037;55.638;37.356;2023-02-19T00:19:19;97514.59;;;-6.61;81.56
58239;BME280;44037;55.638;37.356;2023-02-19T00:21:50;97511.22;;;-6.62;81.38
58239;BME280;44037;55.638;37.356;2023-02-19T00:24:17;97514.44;;;-6.65;81.22
58239;BME280;44037;55.638;37.356;2023-02-19T00:26:45;97511.78;;;-6.68;81.02
58239;BME280;44037;55.638;37.356;2023-02-19T00:29:15;97502.53;;;-6.69;81.23
58239;BME280;44037;55.638;37.356;2023-02-19T00:31:43;97505.06;;;-6.69;81.11
58239;BME280;44037;55.638;37.356;2023-02-19T00:34:11;97501.72;;;-6.68;81.30
58239;BME280;44037;55.638;37.356;2023-02-19T00:36:39;97501.72;;;-6.68;81.27
58239;BME280;44037;55.638;37.356;2023-02-19T00:39:12;97496.63;;;-6.69;81.28
58239;BME280;44037;55.638;37.356;2023-02-19T00:41:39;97489.84;;;-6.70;81.19
58239;BME280;44037;55.638;37.356;2023-02-19T00:44:07;97492.38;;;-6.70;81.44
58239;BME280;44037;55.638;37.356;2023-02-19T00:46:36;97498.16;;;-6.73;81.39
58239;BME280;44037;55.638;37.356;2023-02-19T00:49:04;97493.13;;;-6.73;81.38
58239;BME280;44037;55.638;37.356;2023-02-19T00:51:33;97488.88;;;-6.74;81.03
58239;BME280;44037;55.638;37.356;2023-02-19T00:54:01;97480.47;;;-6.74;81.30
58239;BME280;44037;55.638;37.356;2023-02-19T00:56:30;97478.66;;;-6.77;81.32
58239;BME280;44037;55.638;37.356;2023-02-19T00:58:57;97476.94;;;-6.78;81.44
58239;BME280;44037;55.638;37.356;2023-02-19T01:01:24;97467.66;;;-6.79;81.87
58239;BME280;44037;55.638;37.356;2023-02-19T01:03:51;97474.41;;;-6.78;81.67
58239;BME280;44037;55.638;37.356;2023-02-19T01:06:19;97471.06;;;-6.79;81.73
58239;BME280;44037;55.638;37.356;2023-02-19T01:08:46;97467.56;;;-6.82;81.45
58239;BME280;44037;55.638;37.356;2023-02-19T01:11:14;97462.38;;;-6.85;81.74
58239;BME280;44037;55.638;37.356;2023-02-19T01:13:43;97464.75;;;-6.88;81.69
58239;BME280;44037;55.638;37.356;2023-02-19T01:16:19;97464.84;;;-6.87;81.63
58239;BME280;44037;55.638;37.356;2023-02-19T01:18:47;97465.69;;;-6.86;82.10
58239;BME280;44037;55.638;37.356;2023-02-19T01:21:15;97458.91;;;-6.87;81.92
58239;BME280;44037;55.638;37.356;2023-02-19T01:23:43;97458.13;;;-6.86;81.96
58239;BME280;44037;55.638;37.356;2023-02-19T01:26:13;97455.56;;;-6.88;81.95
58239;BME280;44037;55.638;37.356;2023-02-19T01:28:41;97459.91;;;-6.84;81.90
58239;BME280;44037;55.638;37.356;2023-02-19T01:31:12;97459.91;;;-6.84;82.24
58239;BME280;44037;55.638;37.356;2023-02-19T01:33:39;97454.03;;;-6.84;82.10
58239;BME280;44037;55.638;37.356;2023-02-19T01:36:08;97446.47;;;-6.84;82.10
58239;BME280;44037;55.638;37.356;2023-02-19T01:38:36;97447.31;;;-6.84;82.07
58239;BME280;44037;55.638;37.356;2023-02-19T01:41:04;97449.84;;;-6.84;82.10
58239;BME280;44037;55.638;37.356;2023-02-19T01:43:33;97433.88;;;-6.84;82.07
58239;BME280;44037;55.638;37.356;2023-02-19T01:46:01;97441.47;;;-6.83;82.10
58239;BME280;44037;55.638;37.356;2023-02-19T01:48:32;97440.63;;;-6.83;82.09
58239;BME280;44037;55.638;37.356;2023-02-19T01:51:09;97444.09;;;-6.81;82.16
58239;BME280;44037;55.638;37.356;2023-02-19T01:53:41;97447.50;;;-6.79;82.28
58239;BME280;44037;55.638;37.356;2023-02-19T01:56:12;97446.72;;;-6.78;82.11
58239;BME280;44037;55.638;37.356;2023-02-19T01:58:41;97431.59;;;-6.78;81.96
58239;BME280;44037;55.638;37.356;2023-02-19T02:01:08;97439.09;;;-6.80;82.18
58239;BME280;44037;55.638;37.356;2023-02-19T02:03:38;97438.22;;;-6.80;81.95
58239;BME280;44037;55.638;37.356;2023-02-19T02:06:09;97437.31;;;-6.82;82.02
58239;BME280;44037;55.638;37.356;2023-02-19T02:08:38;97446.38;;;-6.86;81.80
58239;BME280;44037;55.638;37.356;2023-02-19T02:11:23;97438.78;;;-6.87;81.80
58239;BME280;44037;55.638;37.356;2023-02-19T02:13:51;97431.22;;;-6.87;81.88
58239;BME280;44037;55.638;37.356;2023-02-19T02:16:22;97436.31;;;-6.86;82.02
58239;BME280;44037;55.638;37.356;2023-02-19T02:18:58;97440.50;;;-6.86;81.84
58239;BME280;44037;55.638;37.356;2023-02-19T02:21:56;97429.63;;;-6.85;81.97
58239;BME280;44037;55.638;37.356;2023-02-19T02:27:48;97428.88;;;-6.83;82.17
58239;BME280;44037;55.638;37.356;2023-02-19T02:30:27;97431.34;;;-6.84;82.17
58239;BME280;44037;55.638;37.356;2023-02-19T02:33:03;97427.91;;;-6.86;81.99
58239;BME280;44037;55.638;37.356;2023-02-19T02:35:36;97428.69;;;-6.87;81.98
58239;BME280;44037;55.638;37.356;2023-02-19T02:38:07;97427.63;;;-6.92;81.70
58239;BME280;44037;55.638;37.356;2023-02-19T02:40:36;97420.91;;;-6.93;82.18
58239;BME280;44037;55.638;37.356;2023-02-19T02:43:05;97428.47;;;-6.93;81.94
58239;BME280;44037;55.638;37.356;2023-02-19T02:45:34;97425.84;;;-6.95;81.82
58239;BME280;44037;55.638;37.356;2023-02-19T02:48:13;97424.13;;;-6.96;81.93
58239;BME280;44037;55.638;37.356;2023-02-19T02:50:47;97421.63;;;-6.96;82.23
58239;BME280;44037;55.638;37.356;2023-02-19T02:53:20;97429.16;;;-6.96;82.03
58239;BME280;44037;55.638;37.356;2023-02-19T02:56:06;97420.03;;;-6.94;82.02
58239;BME280;44037;55.638;37.356;2023-02-19T02:58:36;97426.84;;;-6.91;82.27
58239;BME280;44037;55.638;37.356;2023-02-19T03:01:08;97428.56;;;-6.90;82.20
58239;BME280;44037;55.638;37.356;2023-02-19T03:03:59;97424.31;;;-6.91;82.16
58239;BME280;44037;55.638;37.356;2023-02-19T03:06:28;97414.94;;;-6.96;82.20
58239;BME280;44037;55.638;37.356;2023-02-19T03:09:01;97409.09;;;-6.95;82.12
58239;BME280;44037;55.638;37.356;2023-02-19T03:11:31;97415.72;;;-6.97;82.00
58239;BME280;44037;55.638;37.356;2023-02-19T03:14:21;97415.59;;;-7.00;82.06
58239;BME280;44037;55.638;37.356;2023-02-19T03:17:16;97409.72;;;-7.00;82.22
58239;BME280;44037;55.638;37.356;2023-02-19T03:20:06;97404.69;;;-7.00;82.44
58239;BME280;44037;55.638;37.356;2023-02-19T03:22:35;97407.25;;;-6.99;82.49
58239;BME280;44037;55.638;37.356;2023-02-19T03:25:08;97403.84;;;-6.99;82.96
58239;BME280;44037;55.638;37.356;2023-02-19T03:27:54;97401.28;;;-7.01;82.83
58239;BME280;44037;55.638;37.356;2023-02-19T03:30:26;97403.84;;;-6.99;83.03
58239;BME280;44037;55.638;37.356;2023-02-19T03:32:58;97393.72;;;-7.01;83.07
58239;BME280;44037;55.638;37.356;2023-02-19T03:35:30;97387.75;;;-7.03;82.96
58239;BME280;44037;55.638;37.356;2023-02-19T03:38:02;97395.31;;;-7.03;83.21
58239;BME280;44037;55.638;37.356;2023-02-19T03:40:37;97401.22;;;-7.02;83.19
58239;BME280;44037;55.638;37.356;2023-02-19T03:43:14;97400.44;;;-7.01;83.75
58239;BME280;44037;55.638;37.356;2023-02-19T03:45:47;97386.31;;;-6.98;83.49
58239;BME280;44037;55.638;37.356;2023-02-19T03:48:25;97380.34;;;-7.00;83.56
58239;BME280;44037;55.638;37.356;2023-02-19T03:51:03;97384.53;;;-7.00;83.30
58239;BME280;44037;55.638;37.356;2023-02-19T03:53:33;97387.72;;;-7.04;83.17
58239;BME280;44037;55.638;37.356;2023-02-19T03:56:07;97375.78;;;-7.08;83.37
58239;BME280;44037;55.638;37.356;2023-02-19T03:58:42;97387.53;;;-7.09;83.37
58239;BME280;44037;55.638;37.356;2023-02-19T04:01:15;97380.75;;;-7.10;83.53
58239;BME280;44037;55.638;37.356;2023-02-19T04:03:47;97381.59;;;-7.10;83.44
58239;BME280;44037;55.638;37.356;2023-02-19T04:06:21;97359.88;;;-7.07;83.83
58239;BME280;44037;55.638;37.356;2023-02-19T04:08:52;97370.75;;;-7.08;83.90
58239;BME280;44037;55.638;37.356;2023-02-19T04:11:21;97362.34;;;-7.09;84.01
58239;BME280;44037;55.638;37.356;2023-02-19T04:13:54;97372.47;;;-7.07;84.31
58239;BME280;44037;55.638;37.356;2023-02-19T04:16:27;97364.78;;;-7.11;84.17
58239;BME280;44037;55.638;37.356;2023-02-19T04:18:58;97365.53;;;-7.13;84.24
58239;BME280;44037;55.638;37.356;2023-02-19T04:21:31;97383.00;;;-7.16;84.23
58239;BME280;44037;55.638;37.356;2023-02-19T04:24:02;97376.19;;;-7.19;84.40
58239;BME280;44037;55.638;37.356;2023-02-19T04:26:31;97388.81;;;-7.17;84.42
58239;BME280;44037;55.638;37.356;2023-02-19T04:29:00;97382.09;;;-7.18;84.07
58239;BME280;44037;55.638;37.356;2023-02-19T04:31:29;97375.44;;;-7.16;84.42
58239;BME280;44037;55.638;37.356;2023-02-19T04:34:01;97386.53;;;-7.13;84.45
58239;BME280;44037;55.638;37.356;2023-02-19T04:36:29;97380.75;;;-7.10;84.55
58239;BME280;44037;55.638;37.356;2023-02-19T04:38:56;97375.78;;;-7.08;84.71
58239;BME280;44037;55.638;37.356;2023-02-19T04:41:23;97365.78;;;-7.07;84.86
58239;BME280;44037;55.638;37.356;2023-02-19T04:43:50;97369.94;;;-7.07;85.07
58239;BME280;44037;55.638;37.356;2023-02-19T04:46:17;97369.09;;;-7.08;84.87
58239;BME280;44037;55.638;37.356;2023-02-19T04:48:44;97361.59;;;-7.06;84.63
58239;BME280;44037;55.638;37.356;2023-02-19T04:51:13;97360.75;;;-7.07;84.63
58239;BME280;44037;55.638;37.356;2023-02-19T04:53:40;97360.66;;;-7.08;84.44
58239;BME280;44037;55.638;37.356;2023-02-19T04:56:09;97356.44;;;-7.10;84.80
58239;BME280;44037;55.638;37.356;2023-02-19T04:58:36;97352.28;;;-7.09;84.75
58239;BME280;44037;55.638;37.356;2023-02-19T05:01:03;97356.63;;;-7.05;84.93
58239;BME280;44037;55.638;37.356;2023-02-19T05:03:30;97357.56;;;-7.03;85.00
58239;BME280;44037;55.638;37.356;2023-02-19T05:06:01;97359.28;;;-7.02;84.98
58239;BME280;44037;55.638;37.356;2023-02-19T05:08:31;97350.94;;;-7.01;84.84
58239;BME280;44037;55.638;37.356;2023-02-19T05:10:59;97348.41;;;-7.01;85.17
58239;BME280;44037;55.638;37.356;2023-02-19T05:13:26;97340.06;;;-7.00;85.32
58239;BME280;44037;55.638;37.356;2023-02-19T05:15:55;97335.88;;;-6.99;85.33
58239;BME280;44037;55.638;37.356;2023-02-19T05:18:22;97336.81;;;-6.97;85.06
58239;BME280;44037;55.638;37.356;2023-02-19T05:20:50;97331.84;;;-6.96;85.29
58239;BME280;44037;55.638;37.356;2023-02-19T05:23:17;97340.31;;;-6.93;85.32
58239;BME280;44037;55.638;37.356;2023-02-19T05:25:46;97334.41;;;-6.94;85.01
58239;BME280;44037;55.638;37.356;2023-02-19T05:28:13;97339.44;;;-6.94;85.18
58239;BME280;44037;55.638;37.356;2023-02-19T05:30:43;97331.16;;;-6.91;85.32
58239;BME280;44037;55.638;37.356;2023-02-19T05:33:10;97337.13;;;-6.89;85.15
58239;BME280;44037;55.638;37.356;2023-02-19T05:35:42;97332.88;;;-6.90;85.22
58239;BME280;44037;55.638;37.356;2023-02-19T05:38:09;97324.53;;;-6.89;84.96
58239;BME280;44037;55.638;37.356;2023-02-19T05:40:36;97328.72;;;-6.90;84.95
58239;BME280;44037;55.638;37.356;2023-02-19T05:43:05;97328.91;;;-6.85;84.99
58239;BME280;44037;55.638;37.356;2023-02-19T05:45:33;97336.59;;;-6.82;84.93
58239;BME280;44037;55.638;37.356;2023-02-19T05:48:00;97333.44;;;-6.76;84.86
58239;BME280;44037;55.638;37.356;2023-02-19T05:50:28;97316.75;;;-6.74;84.66
58239;BME280;44037;55.638;37.356;2023-02-19T05:52:55;97333.63;;;-6.72;84.53
58239;BME280;44037;55.638;37.356;2023-02-19T05:55:25;97326.38;;;-6.64;84.32
58239;BME280;44037;55.638;37.356;2023-02-19T05:57:52;97323.25;;;-6.58;84.37
58239;BME280;44037;55.638;37.356;2023-02-19T06:00:21;97324.22;;;-6.55;84.49
58239;BME280;44037;55.638;37.356;2023-02-19T06:02:52;97329.47;;;-6.49;84.32
58239;BME280;44037;55.638;37.356;2023-02-19T06:05:19;97323.84;;;-6.43;84.18
58239;BME280;44037;55.638;37.356;2023-02-19T06:07:46;97320.75;;;-6.36;84.06
58239;BME280;44037;55.638;37.356;2023-02-19T06:10:15;97321.69;;;-6.34;83.87
58239;BME280;44037;55.638;37.356;2023-02-19T06:12:42;97320.16;;;-6.28;83.75
58239;BME280;44037;55.638;37.356;2023-02-19T06:15:10;97318.81;;;-6.20;83.81
58239;BME280;44037;55.638;37.356;2023-02-19T06:17:38;97319.03;;;-6.14;83.51
58239;BME280;44037;55.638;37.356;2023-02-19T06:20:06;97318.38;;;-6.10;83.26
58239;BME280;44037;55.638;37.356;2023-02-19T06:22:34;97321.09;;;-6.04;83.04
58239;BME280;44037;55.638;37.356;2023-02-19T06:25:01;97319.59;;;-5.98;82.96
58239;BME280;44037;55.638;37.356;2023-02-19T06:27:29;97321.53;;;-5.91;82.88
58239;BME280;44037;55.638;37.356;2023-02-19T06:29:56;97320.03;;;-5.86;82.85
58239;BME280;44037;55.638;37.356;2023-02-19T06:32:23;97324.56;;;-5.77;82.65
58239;BME280;44037;55.638;37.356;2023-02-19T06:34:52;97314.47;;;-5.77;82.17
58239;BME280;44037;55.638;37.356;2023-02-19T06:37:18;97311.22;;;-5.73;82.49
58239;BME280;44037;55.638;37.356;2023-02-19T06:39:46;97306.38;;;-5.68;81.83
58239;BME280;44037;55.638;37.356;2023-02-19T06:42:13;97310.56;;;-5.69;81.00
58239;BME280;44037;55.638;37.356;2023-02-19T06:44:40;97302.22;;;-5.66;81.67
58239;BME280;44037;55.638;37.356;2023-02-19T06:47:07;97300.53;;;-5.67;81.29
58239;BME280;44037;55.638;37.356;2023-02-19T06:49:34;97295.38;;;-5.71;81.35
58239;BME280;44037;55.638;37.356;2023-02-19T06:52:03;97293.66;;;-5.72;81.39
58239;BME280;44037;55.638;37.356;2023-02-19T06:54:30;97288.38;;;-5.78;81.34
58239;BME280;44037;55.638;37.356;2023-02-19T06:56:57;97294.16;;;-5.80;81.35
58239;BME280;44037;55.638;37.356;2023-02-19T06:59:25;97291.59;;;-5.82;81.30
58239;BME280;44037;55.638;37.356;2023-02-19T07:01:52;97287.28;;;-5.84;81.26
58239;BME280;44037;55.638;37.356;2023-02-19T07:04:19;97284.59;;;-5.89;80.97
58239;BME280;44037;55.638;37.356;2023-02-19T07:06:46;97282.03;;;-5.91;80.89
58239;BME280;44037;55.638;37.356;2023-02-19T07:09:14;97278.75;;;-5.88;80.92
58239;BME280;44037;55.638;37.356;2023-02-19T07:11:42;97266.22;;;-5.87;80.60
58239;BME280;44037;55.638;37.356;2023-02-19T07:14:13;97284.84;;;-5.83;80.49
58239;BME280;44037;55.638;37.356;2023-02-19T07:16:41;97274.94;;;-5.77;80.44
58239;BME280;44037;55.638;37.356;2023-02-19T07:19:09;97277.72;;;-5.71;80.49
58239;BME280;44037;55.638;37.356;2023-02-19T07:21:36;97277.22;;;-5.60;80.46
58239;BME280;44037;55.638;37.356;2023-02-19T07:24:03;97272.47;;;-5.51;80.43
58239;BME280;44037;55.638;37.356;2023-02-19T07:26:32;97265.28;;;-5.40;80.08
58239;BME280;44037;55.638;37.356;2023-02-19T07:28:59;97261.41;;;-5.30;79.96
58239;BME280;44037;55.638;37.356;2023-02-19T07:31:27;97267.53;;;-5.23;79.69
58239;BME280;44037;55.638;37.356;2023-02-19T07:33:55;97270.34;;;-5.14;79.78
58239;BME280;44037;55.638;37.356;2023-02-19T07:36:22;97260.28;;;-5.13;79.66
58239;BME280;44037;55.638;37.356;2023-02-19T07:38:53;97250.28;;;-5.10;79.14
58239;BME280;44037;55.638;37.356;2023-02-19T07:41:21;97259.47;;;-5.12;79.21
58239;BME280;44037;55.638;37.356;2023-02-19T07:43:50;97260.28;;;-5.13;78.97
58239;BME280;44037;55.638;37.356;2023-02-19T07:46:17;97254.41;;;-5.13;79.03
58239;BME280;44037;55.638;37.356;2023-02-19T07:48:45;97260.41;;;-5.10;78.64
58239;BME280;44037;55.638;37.356;2023-02-19T07:51:14;97257.00;;;-5.10;78.55
58239;BME280;44037;55.638;37.356;2023-02-19T07:53:43;97258.03;;;-5.05;78.45
58239;BME280;44037;55.638;37.356;2023-02-19T07:56:12;97254.94;;;-4.96;78.83
58239;BME280;44037;55.638;37.356;2023-02-19T07:58:39;97247.66;;;-4.87;78.61
58239;BME280;44037;55.638;37.356;2023-02-19T08:01:10;97246.31;;;-4.75;78.36
58239;BME280;44037;55.638;37.356;2023-02-19T08:03:37;97235.50;;;-4.71;78.45
58239;BME280;44037;55.638;37.356;2023-02-19T08:06:07;97244.16;;;-4.63;78.53
58239;BME280;44037;55.638;37.356;2023-02-19T08:08:36;97238.63;;;-4.51;78.72
58239;BME280;44037;55.638;37.356;2023-02-19T08:11:04;97241.44;;;-4.42;78.42
58239;BME280;44037;55.638;37.356;2023-02-19T08:13:49;97238.25;;;-4.35;78.25
58239;BME280;44037;55.638;37.356;2023-02-19T08:16:18;97233.34;;;-4.30;77.82
58239;BME280;44037;55.638;37.356;2023-02-19T08:18:46;97234.97;;;-4.32;77.62
58239;BME280;44037;55.638;37.356;2023-02-19T08:21:13;97233.25;;;-4.33;77.73
58239;BME280;44037;55.638;37.356;2023-02-19T08:23:42;97225.47;;;-4.39;77.16
58239;BME280;44037;55.638;37.356;2023-02-19T08:26:11;97220.34;;;-4.42;76.72
58239;BME280;44037;55.638;37.356;2023-02-19T08:28:38;97224.50;;;-4.44;76.76
58239;BME280;44037;55.638;37.356;2023-02-19T08:31:06;97222.88;;;-4.42;76.78
58239;BME280;44037;55.638;37.356;2023-02-19T08:33:35;97225.41;;;-4.42;76.82
58239;BME280;44037;55.638;37.356;2023-02-19T08:36:04;97227.13;;;-4.41;76.91
58239;BME280;44037;55.638;37.356;2023-02-19T08:38:32;97228.88;;;-4.39;77.03
58239;BME280;44037;55.638;37.356;2023-02-19T08:41:03;97222.22;;;-4.37;76.63
58239;BME280;44037;55.638;37.356;2023-02-19T08:43:31;97220.44;;;-4.39;76.10
58239;BME280;44037;55.638;37.356;2023-02-19T08:45:58;97212.69;;;-4.45;76.14
58239;BME280;44037;55.638;37.356;2023-02-19T08:48:25;97213.34;;;-4.51;75.95
58239;BME280;44037;55.638;37.356;2023-02-19T08:50:55;97212.53;;;-4.50;76.54
58239;BME280;44037;55.638;37.356;2023-02-19T08:53:23;97201.56;;;-4.51;76.06
58239;BME280;44037;55.638;37.356;2023-02-19T08:55:51;97208.34;;;-4.50;76.38
58239;BME280;44037;55.638;37.356;2023-02-19T08:58:18;97205.94;;;-4.45;76.15
58239;BME280;44037;55.638;37.356;2023-02-19T09:00:45;97199.38;;;-4.38;75.81
58239;BME280;44037;55.638;37.356;2023-02-19T09:03:12;97199.53;;;-4.34;76.17
58239;BME280;44037;55.638;37.356;2023-02-19T09:05:40;97210.72;;;-4.25;75.93
58239;BME280;44037;55.638;37.356;2023-02-19T09:08:09;97200.06;;;-4.15;76.12
58239;BME280;44037;55.638;37.356;2023-02-19T09:10:37;97198.53;;;-4.10;75.53
58239;BME280;44037;55.638;37.356;2023-02-19T09:13:04;97196.03;;;-4.08;75.27
58239;BME280;44037;55.638;37.356;2023-02-19T09:15:31;97195.25;;;-4.06;75.03
58239;BME280;44037;55.638;37.356;2023-02-19T09:17:59;97196.13;;;-4.05;74.96
58239;BME280;44037;55.638;37.356;2023-02-19T09:20:26;97189.38;;;-4.05;74.99
58239;BME280;44037;55.638;37.356;2023-02-19T09:22:56;97188.59;;;-4.02;74.69
58239;BME280;44037;55.638;37.356;2023-02-19T09:25:25;97176.94;;;-3.97;75.24
58239;BME280;44037;55.638;37.356;2023-02-19T09:27:55;97175.47;;;-3.89;74.43
58239;BME280;44037;55.638;37.356;2023-02-19T09:30:22;97191.63;;;-3.83;74.47
58239;BME280;44037;55.638;37.356;2023-02-19T09:32:49;97184.19;;;-3.77;74.61
58239;BME280;44037;55.638;37.356;2023-02-19T09:35:16;97181.09;;;-3.67;74.83
58239;BME280;44037;55.638;37.356;2023-02-19T09:37:43;97177.97;;;-3.57;74.97
58239;BME280;44037;55.638;37.356;2023-02-19T09:40:11;97172.09;;;-3.56;73.46
58239;BME280;44037;55.638;37.356;2023-02-19T09:42:42;97177.94;;;-3.58;73.25
58239;BME280;44037;55.638;37.356;2023-02-19T09:45:15;97173.53;;;-3.65;73.27
58239;BME280;44037;55.638;37.356;2023-02-19T09:47:45;97176.06;;;-3.65;73.24
58239;BME280;44037;55.638;37.356;2023-02-19T09:50:16;97169.47;;;-3.60;73.28
58239;BME280;44037;55.638;37.356;2023-02-19T09:52:49;97167.88;;;-3.55;72.88
58239;BME280;44037;55.638;37.356;2023-02-19T09:55:24;97165.63;;;-3.44;73.70
58239;BME280;44037;55.638;37.356;2023-02-19T09:57:56;97153.09;;;-3.40;72.30
58239;BME280;44037;55.638;37.356;2023-02-19T10:00:27;97162.31;;;-3.42;72.14
58239;BME280;44037;55.638;37.356;2023-02-19T10:03:01;97155.34;;;-3.50;71.88
58239;BME280;44037;55.638;37.356;2023-02-19T10:05:30;97167.88;;;-3.55;71.81
58239;BME280;44037;55.638;37.356;2023-02-19T10:07:58;97163.72;;;-3.53;72.41
58239;BME280;44037;55.638;37.356;2023-02-19T10:10:29;97159.66;;;-3.46;72.93
58239;BME280;44037;55.638;37.356;2023-02-19T10:13:11;97164.00;;;-3.42;72.88
58239;BME280;44037;55.638;37.356;2023-02-19T10:15:44;97161.59;;;-3.36;72.59
58239;BME280;44037;55.638;37.356;2023-02-19T10:18:16;97156.63;;;-3.33;72.52
58239;BME280;44037;55.638;37.356;2023-02-19T10:20:44;97157.53;;;-3.31;71.68
58239;BME280;44037;55.638;37.356;2023-02-19T10:23:14;97144.97;;;-3.26;71.79
58239;BME280;44037;55.638;37.356;2023-02-19T10:25:44;97152.88;;;-3.12;71.76
58239;BME280;44037;55.638;37.356;2023-02-19T10:28:18;97149.06;;;-2.95;71.06
58239;BME280;44037;55.638;37.356;2023-02-19T10:30:50;97148.69;;;-2.73;71.21
58239;BME280;44037;55.638;37.356;2023-02-19T10:33:17;97148.41;;;-2.46;71.48
58239;BME280;44037;55.638;37.356;2023-02-19T10:35:53;97143.00;;;-2.22;71.12
58239;BME280;44037;55.638;37.356;2023-02-19T10:38:22;97146.75;;;-2.03;71.12
58239;BME280;44037;55.638;37.356;2023-02-19T10:40:58;97148.63;;;-1.92;69.69
58239;BME280;44037;55.638;37.356;2023-02-19T10:43:29;97142.78;;;-1.87;69.35
58239;BME280;44037;55.638;37.356;2023-02-19T10:46:04;97138.56;;;-1.86;69.11
58239;BME280;44037;55.638;37.356;2023-02-19T10:48:34;97132.59;;;-1.88;68.67
58239;BME280;44037;55.638;37.356;2023-02-19T10:51:06;97134.91;;;-2.01;68.28
58239;BME280;44037;55.638;37.356;2023-02-19T10:53:44;97125.50;;;-2.06;68.98
58239;BME280;44037;55.638;37.356;2023-02-19T10:56:13;97128.78;;;-2.12;68.43
58239;BME280;44037;55.638;37.356;2023-02-19T10:58:43;97124.53;;;-2.13;68.95
58239;BME280;44037;55.638;37.356;2023-02-19T11:01:14;97132.94;;;-2.17;67.61
58239;BME280;44037;55.638;37.356;2023-02-19T11:03:44;97118.53;;;-2.17;67.85
58239;BME280;44037;55.638;37.356;2023-02-19T11:06:13;97127.94;;;-2.11;68.16
58239;BME280;44037;55.638;37.356;2023-02-19T11:08:53;97133.91;;;-2.09;68.12
58239;BME280;44037;55.638;37.356;2023-02-19T11:11:23;97127.09;;;-2.11;68.09
58239;BME280;44037;55.638;37.356;2023-02-19T11:13:54;97131.28;;;-2.15;68.60
58239;BME280;44037;55.638;37.356;2023-02-19T11:16:22;97134.16;;;-2.41;68.44
58239;BME280;44037;55.638;37.356;2023-02-19T11:18:55;97130.16;;;-2.71;68.17
58239;BME280;44037;55.638;37.356;2023-02-19T11:21:24;97134.78;;;-2.89;68.40
58239;BME280;44037;55.638;37.356;2023-02-19T11:23:57;97132.06;;;-2.99;68.63
58239;BME280;44037;55.638;37.356;2023-02-19T11:26:26;97121.09;;;-2.99;68.83
58239;BME280;44037;55.638;37.356;2023-02-19T11:28:59;97112.56;;;-3.03;68.93
58239;BME280;44037;55.638;37.356;2023-02-19T11:31:27;97121.97;;;-2.97;69.50
58239;BME280;44037;55.638;37.356;2023-02-19T11:33:57;97127.19;;;-2.89;69.20
58239;BME280;44037;55.638;37.356;2023-02-19T11:36:30;97125.72;;;-2.81;69.01
58239;BME280;44037;55.638;37.356;2023-02-19T11:38:59;97132.50;;;-2.79;68.88
58239;BME280;44037;55.638;37.356;2023-02-19T11:41:55;97124.22;;;-2.71;68.85
58239;BME280;44037;55.638;37.356;2023-02-19T11:44:37;97123.53;;;-2.63;68.63
58239;BME280;44037;55.638;37.356;2023-02-19T11:47:36;97114.44;;;-2.54;68.35
58239;BME280;44037;55.638;37.356;2023-02-19T11:50:14;97119.78;;;-2.40;67.81
58239;BME280;44037;55.638;37.356;2023-02-19T11:52:52;97126.81;;;-2.25;68.33
58239;BME280;44037;55.638;37.356;2023-02-19T11:55:36;97115.91;;;-2.21;68.16
58239;BME280;44037;55.638;37.356;2023-02-19T11:58:23;97115.84;;;-2.26;67.57
58239;BME280;44037;55.638;37.356;2023-02-19T12:00:57;97105.38;;;-2.43;67.60
58239;BME280;44037;55.638;37.356;2023-02-19T12:03:42;97119.28;;;-2.65;67.72
58239;BME280;44037;55.638;37.356;2023-02-19T12:06:22;97116.22;;;-2.90;67.11
58239;BME280;44037;55.638;37.356;2023-02-19T12:09:06;97108.16;;;-3.10;67.53
58239;BME280;44037;55.638;37.356;2023-02-19T12:11:50;97107.78;;;-3.27;68.49
58239;BME280;44037;55.638;37.356;2023-02-19T12:17:41;97120.97;;;-3.42;69.06
58239;BME280;44037;55.638;37.356;2023-02-19T12:20:18;97123.31;;;-3.48;69.26
58239;BME280;44037;55.638;37.356;2023-02-19T12:22:58;97121.59;;;-3.51;69.29
58239;BME280;44037;55.638;37.356;2023-02-19T12:25:49;97111.38;;;-3.54;69.44
58239;BME280;44037;55.638;37.356;2023-02-19T12:28:31;97123.22;;;-3.53;70.11
58239;BME280;44037;55.638;37.356;2023-02-19T12:31:14;97124.13;;;-3.51;69.92
58239;BME280;44037;55.638;37.356;2023-02-19T12:33:58;97123.13;;;-3.56;69.66
58239;BME280;44037;55.638;37.356;2023-02-19T12:36:36;97116.31;;;-3.59;70.26
58239;BME280;44037;55.638;37.356;2023-02-19T12:39:12;97119.69;;;-3.58;69.61
58239;BME280;44037;55.638;37.356;2023-02-19T12:41:48;97124.66;;;-3.63;69.68
58239;BME280;44037;55.638;37.356;2023-02-19T12:44:23;97122.06;;;-3.66;70.49
58239;BME280;44037;55.638;37.356;2023-02-19T12:46:56;97127.00;;;-3.71;70.66
58239;BME280;44037;55.638;37.356;2023-02-19T12:49:30;97130.31;;;-3.73;70.51
58239;BME280;44037;55.638;37.356;2023-02-19T12:52:02;97124.28;;;-3.78;70.83
58239;BME280;44037;55.638;37.356;2023-02-19T12:54:34;97118.94;;;-3.89;70.58
58239;BME280;44037;55.638;37.356;2023-02-19T12:57:08;97134.75;;;-3.98;70.98
58239;BME280;44037;55.638;37.356;2023-02-19T12:59:39;97132.91;;;-4.04;71.88
58239;BME280;44037;55.638;37.356;2023-02-19T13:02:12;97133.63;;;-4.08;71.74
58239;BME280;44037;55.638;37.356;2023-02-19T13:04:47;97131.75;;;-4.15;71.48
58239;BME280;44037;55.638;37.356;2023-02-19T13:07:17;97139.97;;;-4.24;72.49
58239;BME280;44037;55.638;37.356;2023-02-19T13:09:48;97138.31;;;-4.23;72.64
58239;BME280;44037;55.638;37.356;2023-02-19T13:12:21;97134.19;;;-4.20;73.38
58239;BME280;44037;55.638;37.356;2023-02-19T13:14:55;97133.38;;;-4.19;73.19
58239;BME280;44037;55.638;37.356;2023-02-19T13:17:25;97132.56;;;-4.18;73.74